createdAt,value
2022-10-13T00:03:07.160Z,99676.78
2022-10-13T00:08:11.090Z,99679.44
2022-10-13T00:13:19.789Z,99679.50
2022-10-13T00:18:24.865Z,99682.09
2022-10-13T00:23:28.721Z,99682.06
2022-10-13T00:28:32.260Z,99677.75
2022-10-13T00:33:37.159Z,99677.72
2022-10-13T00:38:40.521Z,99687.31
2022-10-13T00:43:54.277Z,99682.97
2022-10-13T00:49:01.392Z,99679.50
2022-10-13T00:54:07.311Z,99684.75
2022-10-13T00:59:15.108Z,99682.97
2022-10-13T01:04:24.554Z,99679.50
2022-10-13T01:09:34.973Z,99688.22
2022-10-13T01:14:46.251Z,99686.50
2022-10-13T01:20:39.296Z,99676.91
2022-10-13T01:26:06.029Z,99672.53
2022-10-13T01:31:21.892Z,99676.00
2022-10-13T01:36:34.529Z,99676.00
2022-10-13T01:41:40.573Z,99661.22
2022-10-13T01:46:48.731Z,99658.59
2022-10-13T01:51:55.684Z,99657.69
2022-10-13T01:56:59.055Z,99658.50
2022-10-13T02:02:10.763Z,99661.09
2022-10-13T02:07:21.269Z,99661.09
2022-10-13T02:12:29.793Z,99658.47
2022-10-13T02:17:34.772Z,99657.56
2022-10-13T02:22:42.246Z,99661.88
2022-10-13T02:27:45.654Z,99653.19
2022-10-13T02:32:50.577Z,99656.63
2022-10-13T02:37:53.986Z,99657.47
2022-10-13T02:42:57.909Z,99663.41
2022-10-13T02:48:03.081Z,99670.31
2022-10-13T02:53:06.553Z,99678.13
2022-10-13T02:58:10.195Z,99676.38
2022-10-13T03:03:14.940Z,99680.66
2022-10-13T03:08:20.269Z,99684.16
2022-10-13T03:13:23.624Z,99683.25
2022-10-13T03:18:28.707Z,99684.97
2022-10-13T03:23:33.086Z,99681.44
2022-10-13T03:28:36.799Z,99676.09
2022-10-13T03:33:42.510Z,99670.88
2022-10-13T03:38:46.573Z,99671.69
2022-10-13T03:43:49.981Z,99665.66
2022-10-13T03:48:54.785Z,99665.69
2022-10-13T03:53:58.609Z,99663.88
2022-10-13T03:59:04.944Z,99674.97
2022-10-13T04:04:12.618Z,99660.94
2022-10-13T04:09:18.200Z,99655.75
2022-10-13T04:14:21.920Z,99656.44
2022-10-13T04:19:26.849Z,99665.09
2022-10-13T04:24:30.765Z,99662.47
2022-10-13T04:29:34.203Z,99658.22
2022-10-13T04:34:39.311Z,99657.25
2022-10-13T04:39:42.967Z,99658.03
2022-10-13T04:44:46.394Z,99658.03
2022-10-13T04:49:55.602Z,99659.78
2022-10-13T04:54:59.360Z,99651.25
2022-10-13T05:00:03.097Z,99652.25
2022-10-13T05:05:10.785Z,99661.13
2022-10-13T05:10:15.061Z,99663.84
2022-10-13T05:15:18.482Z,99671.81
2022-10-13T05:20:23.316Z,99667.63
2022-10-13T05:25:31.486Z,99679.94
2022-10-13T05:30:37.253Z,99681.91
2022-10-13T05:35:42.029Z,99684.69
2022-10-13T05:40:45.418Z,99685.59
2022-10-13T05:45:48.886Z,99701.28
2022-10-13T05:50:54.215Z,99691.69
2022-10-13T05:56:06.248Z,99703.84
2022-10-13T06:01:13.366Z,99695.94
2022-10-13T06:06:18.515Z,99703.69
2022-10-13T06:11:22.038Z,99699.25
2022-10-13T06:16:25.405Z,99699.13
2022-10-13T06:21:30.652Z,99697.25
2022-10-13T06:26:34.081Z,99695.38
2022-10-13T06:31:37.497Z,99703.91
2022-10-13T06:36:42.564Z,99705.31
2022-10-13T06:41:48.417Z,99694.59
2022-10-13T06:46:51.837Z,99696.91
2022-10-13T06:51:58.348Z,99688.78
2022-10-13T06:57:01.792Z,99685.84
2022-10-13T07:02:05.436Z,99690.66
2022-10-13T07:07:10.298Z,99682.47
2022-10-13T07:12:14.823Z,99685.69
2022-10-13T07:17:18.478Z,99686.72
2022-10-13T07:22:23.539Z,99681.84
2022-10-13T07:27:27.272Z,99677.97
2022-10-13T07:32:32.372Z,99671.34
2022-10-13T07:37:41.008Z,99673.31
2022-10-13T07:42:44.412Z,99671.41
2022-10-13T07:47:47.814Z,99664.84
2022-10-13T07:52:52.628Z,99661.44
2022-10-13T07:57:55.976Z,99666.50
2022-10-13T08:02:59.440Z,99662.44
2022-10-13T08:08:04.242Z,99665.16
2022-10-13T08:13:07.765Z,99655.75
2022-10-13T08:18:11.943Z,99657.47
2022-10-13T08:23:16.849Z,99664.69
2022-10-13T08:28:29.535Z,99647.16
2022-10-13T08:33:32.959Z,99657.59
2022-10-13T08:38:38.052Z,99670.22
2022-10-13T08:43:54.910Z,99661.44
2022-10-13T08:49:07.414Z,99652.47
2022-10-13T08:54:17.022Z,99652.56
2022-10-13T08:59:21.913Z,99646.69
2022-10-13T09:04:33.248Z,99645.13
2022-10-13T09:09:39.350Z,99655.09
2022-10-13T09:14:42.839Z,99650.09
2022-10-13T09:19:58.251Z,99659.94
2022-10-13T09:25:20.107Z,99646.50
2022-10-13T09:30:31.669Z,99636.28
2022-10-13T09:35:35.170Z,99647.25
2022-10-13T09:40:41.057Z,99642.13
2022-10-13T09:45:45.094Z,99633.81
2022-10-13T09:50:51.410Z,99636.31
2022-10-13T09:56:11.797Z,99629.16
2022-10-13T10:01:24.593Z,99623.28
2022-10-13T10:06:28.151Z,99621.56
2022-10-13T10:11:39.677Z,99614.84
2022-10-13T10:16:48.285Z,99609.94
2022-10-13T10:22:04.261Z,99612.97
2022-10-13T10:27:17.586Z,99608.16
2022-10-13T10:32:35.065Z,99602.44
2022-10-13T10:37:54.565Z,99584.34
2022-10-13T10:43:17.192Z,99583.59
2022-10-13T10:48:24.458Z,99586.97
2022-10-13T10:53:38.824Z,99586.25
2022-10-13T10:58:51.269Z,99578.72
2022-10-13T11:03:59.844Z,99582.13
2022-10-13T11:09:05.110Z,99561.19
2022-10-13T11:14:36.656Z,99570.22
2022-10-13T11:19:41.330Z,99561.03
2022-10-13T11:24:57.066Z,99555.41
2022-10-13T11:30:03.433Z,99557.94
2022-10-13T11:35:21.563Z,99548.75
2022-10-13T11:40:26.964Z,99546.25
2022-10-13T11:45:57.525Z,99538.28
2022-10-13T11:51:16.335Z,99535.06
2022-10-13T11:56:22.716Z,99522.34
2022-10-13T12:01:27.757Z,99525.69
2022-10-13T12:06:37.097Z,99521.84
2022-10-13T12:11:40.895Z,99531.47
2022-10-13T12:22:02.311Z,99514.88
2022-10-13T12:27:13.384Z,99507.28
2022-10-13T12:32:23.989Z,99499.63
2022-10-13T12:37:31.013Z,99503.31
2022-10-13T12:42:37.820Z,99497.41
2022-10-13T12:47:50.226Z,99487.94
2022-10-13T12:52:55.414Z,99494.16
2022-10-13T12:57:59.219Z,99487.28
2022-10-13T13:03:07.334Z,99479.63
2022-10-13T13:08:25.404Z,99476.75
2022-10-13T13:13:29.611Z,99475.91
2022-10-13T13:18:39.852Z,99470.72
2022-10-13T13:23:49.596Z,99463.38
2022-10-13T13:28:57.617Z,99466.72
2022-10-13T13:34:02.772Z,99464.19
2022-10-13T13:39:08.251Z,99469.31
2022-10-13T13:44:11.692Z,99470.25
2022-10-13T13:49:17.089Z,99476.66
2022-10-13T13:54:20.620Z,99471.50
2022-10-13T13:59:24.013Z,99463.31
2022-10-13T14:04:32.560Z,99464.31
2022-10-13T14:09:36.462Z,99464.13
2022-10-13T14:14:40.100Z,99462.88
2022-10-13T14:19:47.758Z,99466.16
2022-10-13T14:24:51.176Z,99465.63
2022-10-13T14:29:54.897Z,99474.03
2022-10-13T14:34:59.703Z,99474.06
2022-10-13T14:40:03.673Z,99481.50
2022-10-13T14:45:08.612Z,99479.97
2022-10-13T14:50:13.473Z,99479.00
2022-10-13T14:55:17.157Z,99486.44
2022-10-13T15:00:20.698Z,99491.09
2022-10-13T15:05:25.510Z,99486.06
2022-10-13T15:10:30.689Z,99493.69
2022-10-13T15:15:34.907Z,99497.50
2022-10-13T15:20:40.328Z,99502.38
2022-10-13T15:25:51.657Z,99494.66
2022-10-13T15:30:57.367Z,99495.69
2022-10-13T15:36:02.215Z,99497.06
2022-10-13T15:41:07.617Z,99494.69
2022-10-13T15:46:21.059Z,99506.38
2022-10-13T15:51:27.102Z,99515.38
2022-10-13T15:56:30.671Z,99510.44
2022-10-13T16:01:34.310Z,99518.63
2022-10-13T16:06:39.101Z,99519.97
2022-10-13T16:11:42.831Z,99520.09
2022-10-13T16:16:46.263Z,99515.09
2022-10-13T16:21:51.194Z,99524.13
2022-10-13T16:26:54.657Z,99526.88
2022-10-13T16:32:00.572Z,99540.91
2022-10-13T16:37:05.566Z,99546.28
2022-10-13T16:42:08.892Z,99539.28
2022-10-13T16:47:16.008Z,99534.97
2022-10-13T16:52:23.169Z,99516.06
2022-10-13T16:57:27.049Z,99524.13
2022-10-13T17:02:30.559Z,99526.97
2022-10-13T17:07:35.521Z,99528.78
2022-10-13T17:12:38.999Z,99529.63
2022-10-13T17:17:42.441Z,99520.94
2022-10-13T17:22:47.556Z,99516.56
2022-10-13T17:27:52.093Z,99503.69
2022-10-13T17:32:55.716Z,99505.59
2022-10-13T17:38:00.590Z,99509.00
2022-10-13T17:43:04.184Z,99505.50
2022-10-13T17:48:07.794Z,99505.50
2022-10-13T17:53:13.781Z,99509.09
2022-10-13T17:58:17.161Z,99497.19
2022-10-13T18:03:20.825Z,99490.28
2022-10-13T18:08:25.645Z,99493.88
2022-10-13T18:13:29.114Z,99493.00
2022-10-13T18:18:32.869Z,99501.91
2022-10-13T18:23:38.331Z,99507.94
2022-10-13T18:28:43.742Z,99502.59
2022-10-13T18:33:56.171Z,99491.22
2022-10-13T18:39:04.655Z,99489.59
2022-10-13T18:44:08.328Z,99501.00
2022-10-13T18:49:13.813Z,99499.28
2022-10-13T18:54:21.248Z,99502.81
2022-10-13T18:59:25.258Z,99502.22
2022-10-13T19:04:28.780Z,99503.03
2022-10-13T19:09:33.907Z,99506.59
2022-10-13T19:14:37.544Z,99514.41
2022-10-13T19:19:41.590Z,99507.41
2022-10-13T19:24:46.416Z,99508.41
2022-10-13T19:29:53.065Z,99501.44
2022-10-13T19:34:56.551Z,99501.41
2022-10-13T19:40:02.531Z,99504.00
2022-10-13T19:45:07.785Z,99497.91
2022-10-13T19:50:12.813Z,99504.91
2022-10-13T19:55:17.597Z,99497.00
2022-10-13T20:00:21.204Z,99497.88
2022-10-13T20:05:25.641Z,99497.22
2022-10-13T20:10:30.798Z,99494.53
2022-10-13T20:15:34.276Z,99500.63
2022-10-13T20:20:38.630Z,99504.00
2022-10-13T20:25:43.759Z,99495.28
2022-10-13T20:30:47.406Z,99493.47
2022-10-13T20:35:51.653Z,99484.75
2022-10-13T20:40:56.698Z,99487.47
2022-10-13T20:46:01.229Z,99484.84
2022-10-13T20:51:06.148Z,99487.44
2022-10-13T20:56:14.164Z,99493.59
2022-10-13T21:01:18.539Z,99488.41
2022-10-13T21:06:23.261Z,99491.09
2022-10-13T21:11:28.341Z,99491.97
2022-10-13T21:16:32.052Z,99492.91
2022-10-13T21:21:36.225Z,99481.69
2022-10-13T21:26:42.242Z,99476.50
2022-10-13T21:31:50.443Z,99480.00
2022-10-13T21:36:53.847Z,99466.06
2022-10-13T21:41:58.662Z,99471.31
2022-10-13T21:47:02.650Z,99464.38
2022-10-13T21:52:06.443Z,99458.25
2022-10-13T21:57:11.605Z,99453.09
2022-10-13T22:02:15.169Z,99449.63
2022-10-13T22:07:18.953Z,99447.00
2022-10-13T22:12:24.064Z,99446.13
2022-10-13T22:17:27.498Z,99446.16
2022-10-13T22:22:31.157Z,99442.69
2022-10-13T22:27:36.065Z,99440.94
2022-10-13T22:32:39.436Z,99440.94
2022-10-13T22:37:43.078Z,99434.81
2022-10-13T22:42:49.442Z,99427.03
2022-10-13T22:47:52.912Z,99437.47
2022-10-13T22:52:56.634Z,99438.31
2022-10-13T22:58:01.518Z,99433.97
2022-10-13T23:03:05.396Z,99429.63
2022-10-13T23:08:08.848Z,99417.41
2022-10-13T23:13:13.633Z,99435.66
2022-10-13T23:18:17.121Z,99433.00
2022-10-13T23:23:20.492Z,99429.56
2022-10-13T23:28:25.417Z,99430.41
2022-10-13T23:33:28.901Z,99432.16
2022-10-13T23:38:32.988Z,99429.56
2022-10-13T23:43:38.480Z,99426.06
2022-10-13T23:48:42.200Z,99430.34
2022-10-13T23:53:45.651Z,99434.59
2022-10-13T23:58:52.928Z,99439.09
